Time;durP1;ratioP1;P1;durP2;ratioP2;P2;SDS_P1;SDS_P2;PMS_P1;PMS_P2;Temp;Humidity;BMP_temperature;BMP_pressure;BME280_temperature;BME280_humidity;BME280_pressure;Samples;Min_cycle;Max_cycle;Signal;HPM_P1;HPM_P2
2022/12/22 03:26:56;;;;;;;;;;;;;;;6.61;100.00;95824.44;5075538;28;19963;-74
2022/12/22 03:29:21;;;;;;;;;;;;;;;6.62;100.00;95810.41;5075017;28;20002;-74
2022/12/22 03:31:47;;;;;;;;;;;;;;;6.63;100.00;95819.81;5075328;28;19968;-73
2022/12/22 03:34:13;;;;;;;;;;;;;;;6.65;100.00;95819.59;5057490;28;20000;-73
2022/12/22 03:36:39;;;;;;;;;;;;;;;6.67;100.00;95809.78;5075348;28;19970;-74
2022/12/22 03:39:05;;;;;;;;;;;;;;;6.70;100.00;95819.78;5074648;28;19975;-76
2022/12/22 03:47:00;;;;;;;;;;;;;;;6.77;100.00;95812.72;5075244;28;19952;-74
2022/12/22 03:49:26;;;;;;;;;;;;;;;6.81;100.00;95810.50;5074720;28;19946;-73
2022/12/22 03:51:52;;;;;;;;;;;;;;;6.82;100.00;95818.09;5075060;28;19960;-73
2022/12/22 03:54:21;;;;;;;;;;;;;;;6.82;100.00;95807.69;5074667;28;20322;-73
2022/12/22 03:56:48;;;;;;;;;;;;;;;6.85;100.00;95809.09;5074755;28;19952;-74
2022/12/22 03:59:14;;;;;;;;;;;;;;;6.86;100.00;95808.06;5074720;28;20325;-74
2022/12/22 04:01:50;;;;;;;;;;;;;;;6.86;100.00;95808.84;5074499;28;19950;-74
2022/12/22 04:04:17;;;;;;;;;;;;;;;6.88;100.00;95799.03;5074702;28;19949;-73
2022/12/22 04:06:44;;;;;;;;;;;;;;;6.88;100.00;95801.63;5074399;28;19964;-74
2022/12/22 04:09:10;;;;;;;;;;;;;;;6.91;100.00;95801.22;5075016;28;19951;-75
2022/12/22 04:14:21;;;;;;;;;;;;;;;6.93;100.00;95795.00;5074513;28;19947;-73
2022/12/22 04:16:47;;;;;;;;;;;;;;;6.92;100.00;95807.22;5074492;28;20409;-74
2022/12/22 04:19:12;;;;;;;;;;;;;;;6.92;100.00;95804.63;5074192;28;20077;-73
2022/12/22 04:21:38;;;;;;;;;;;;;;;6.91;100.00;95805.66;5074323;28;19948;-74
2022/12/22 04:24:04;;;;;;;;;;;;;;;6.93;100.00;95800.19;5074011;28;19988;-73
2022/12/22 04:26:30;;;;;;;;;;;;;;;6.93;100.00;95789.78;5074305;28;19958;-73
2022/12/22 04:28:56;;;;;;;;;;;;;;;6.94;100.00;95799.22;5074326;28;20407;-73
2022/12/22 04:31:22;;;;;;;;;;;;;;;6.92;100.00;95786.38;5074397;28;19960;-73
2022/12/22 04:33:48;;;;;;;;;;;;;;;6.95;100.00;95788.59;5056352;28;20384;-74
2022/12/22 04:36:14;;;;;;;;;;;;;;;6.94;100.00;95791.38;5074070;28;20068;-73
2022/12/22 04:38:40;;;;;;;;;;;;;;;6.95;100.00;95785.97;5073885;28;19965;-73
2022/12/22 04:41:07;;;;;;;;;;;;;;;6.95;100.00;95779.94;5073018;28;19952;-73
2022/12/22 04:43:33;;;;;;;;;;;;;;;6.94;100.00;95778.34;5073804;28;20315;-74
2022/12/22 04:45:59;;;;;;;;;;;;;;;6.92;100.00;95770.75;5056345;28;20410;-74
2022/12/22 04:48:26;;;;;;;;;;;;;;;6.91;100.00;95776.97;5073923;28;19952;-73
2022/12/22 04:50:53;;;;;;;;;;;;;;;6.90;100.00;95781.38;5074010;28;19978;-74
2022/12/22 04:53:19;;;;;;;;;;;;;;;6.91;100.00;95772.56;5073945;28;19945;-73
2022/12/22 04:55:46;;;;;;;;;;;;;;;6.95;100.00;95772.13;5073651;28;20404;-74
2022/12/22 04:58:12;;;;;;;;;;;;;;;6.97;100.00;95775.31;5073840;28;19967;-73
2022/12/22 05:00:37;;;;;;;;;;;;;;;6.99;100.00;95779.31;5073734;28;20033;-74
2022/12/22 05:03:03;;;;;;;;;;;;;;;6.99;100.00;95771.50;5073603;28;19956;-74
2022/12/22 05:05:29;;;;;;;;;;;;;;;7.03;100.00;95771.84;5055738;28;19950;-75
2022/12/22 05:07:55;;;;;;;;;;;;;;;7.06;100.00;95768.84;5073692;28;20005;-74
2022/12/22 05:10:21;;;;;;;;;;;;;;;7.10;100.00;95770.03;5073461;28;19982;-73
2022/12/22 05:12:56;;;;;;;;;;;;;;;7.13;100.00;95774.81;5073707;28;19984;-73
2022/12/22 05:15:23;;;;;;;;;;;;;;;7.14;100.00;95776.41;5073710;28;19953;-74
2022/12/22 05:17:49;;;;;;;;;;;;;;;7.16;100.00;95778.78;5073482;28;20417;-74
2022/12/22 05:20:15;;;;;;;;;;;;;;;7.15;100.00;95778.00;5073977;28;19951;-74
2022/12/22 05:22:41;;;;;;;;;;;;;;;7.16;100.00;95770.97;5073368;28;19952;-73
2022/12/22 05:25:07;;;;;;;;;;;;;;;7.17;100.00;95770.75;5073350;28;19957;-74
2022/12/22 05:27:33;;;;;;;;;;;;;;;7.18;100.00;95774.97;5073492;28;20326;-74
2022/12/22 05:29:59;;;;;;;;;;;;;;;7.18;100.00;95780.19;5073293;28;19965;-74
2022/12/22 05:32:25;;;;;;;;;;;;;;;7.19;100.00;95778.38;5073767;28;20043;-74
2022/12/22 05:34:51;;;;;;;;;;;;;;;7.18;100.00;95777.59;5073447;28;19952;-74
2022/12/22 05:37:17;;;;;;;;;;;;;;;7.21;100.00;95776.34;5076577;28;20061;-74
2022/12/22 05:39:43;;;;;;;;;;;;;;;7.20;100.00;95774.75;5077295;28;19975;-74
2022/12/22 05:42:08;;;;;;;;;;;;;;;7.21;100.00;95773.75;5077387;28;19954;-73
2022/12/22 05:44:34;;;;;;;;;;;;;;;7.22;100.00;95775.31;5077683;28;20396;-74
2022/12/22 05:47:00;;;;;;;;;;;;;;;7.21;100.00;95769.31;5077467;28;20349;-74
2022/12/22 05:49:26;;;;;;;;;;;;;;;7.22;100.00;95763.09;5077453;28;19952;-73
2022/12/22 05:51:53;;;;;;;;;;;;;;;7.21;100.00;95760.72;5076835;28;20388;-74
2022/12/22 05:54:18;;;;;;;;;;;;;;;7.21;100.00;95765.91;5077035;28;19964;-74
2022/12/22 05:56:44;;;;;;;;;;;;;;;7.24;100.00;95771.50;5077132;28;20065;-73
2022/12/22 05:59:11;;;;;;;;;;;;;;;7.27;100.00;95775.50;5077099;28;19968;-73
2022/12/22 06:01:37;;;;;;;;;;;;;;;7.30;100.00;95778.47;5077274;28;19963;-73
2022/12/22 06:04:03;;;;;;;;;;;;;;;7.34;100.00;95772.84;5076795;28;19962;-73
2022/12/22 06:06:29;;;;;;;;;;;;;;;7.37;100.00;95775.81;5077167;28;19948;-73
2022/12/22 06:08:54;;;;;;;;;;;;;;;7.41;100.00;95779.59;5076905;28;19955;-73
2022/12/22 06:11:20;;;;;;;;;;;;;;;7.45;100.00;95778.13;5077010;28;20100;-73
2022/12/22 06:13:46;;;;;;;;;;;;;;;7.51;100.00;95768.66;5076747;28;19988;-74
2022/12/22 06:16:12;;;;;;;;;;;;;;;7.53;100.00;95770.03;5076894;28;19958;-73
2022/12/22 06:18:38;;;;;;;;;;;;;;;7.54;100.00;95778.69;5076443;28;20439;-74
2022/12/22 06:21:04;;;;;;;;;;;;;;;7.54;100.00;95789.13;5076682;28;19957;-74
2022/12/22 06:23:30;;;;;;;;;;;;;;;7.53;100.00;95774.47;5076459;28;19956;-74
2022/12/22 06:25:56;;;;;;;;;;;;;;;7.53;100.00;95770.03;5076833;28;19949;-74
2022/12/22 06:28:22;;;;;;;;;;;;;;;7.57;100.00;95775.63;5076267;28;19959;-74
2022/12/22 06:30:48;;;;;;;;;;;;;;;7.59;100.00;95776.22;5076427;28;20018;-73
2022/12/22 06:33:14;;;;;;;;;;;;;;;7.62;100.00;95761.94;5075962;28;19973;-74
2022/12/22 06:35:40;;;;;;;;;;;;;;;7.65;100.00;95759.69;5076257;28;19949;-74
2022/12/22 06:38:06;;;;;;;;;;;;;;;7.70;100.00;95765.06;5076163;28;19969;-73
2022/12/22 06:40:32;;;;;;;;;;;;;;;7.73;100.00;95761.25;5076203;28;20046;-74
2022/12/22 06:43:09;;;;;;;;;;;;;;;7.76;100.00;95778.28;5076421;28;19958;-74
2022/12/22 06:45:36;;;;;;;;;;;;;;;7.77;100.00;95774.63;5064217;28;19950;-73
2022/12/22 06:48:02;;;;;;;;;;;;;;;7.75;100.00;95768.84;5075899;28;19956;-73
2022/12/22 06:50:28;;;;;;;;;;;;;;;7.76;100.00;95778.28;5075401;28;20408;-74
2022/12/22 06:52:54;;;;;;;;;;;;;;;7.75;100.00;95774.06;5076241;28;20049;-73
2022/12/22 06:55:20;;;;;;;;;;;;;;;7.75;100.00;95777.47;5076014;28;19958;-73
2022/12/22 06:57:46;;;;;;;;;;;;;;;7.80;100.00;95772.41;5076068;28;19956;-74
2022/12/22 07:00:12;;;;;;;;;;;;;;;7.84;100.00;95768.34;5075833;28;19984;-74
2022/12/22 07:02:37;;;;;;;;;;;;;;;7.86;100.00;95768.94;5075844;28;20325;-74
2022/12/22 07:05:04;;;;;;;;;;;;;;;7.85;100.00;95756.09;5075722;28;19954;-74
2022/12/22 07:07:29;;;;;;;;;;;;;;;7.83;100.00;95777.19;5075836;28;19958;-74
2022/12/22 07:09:55;;;;;;;;;;;;;;;7.80;100.00;95782.84;5075707;28;20007;-73
2022/12/22 07:12:22;;;;;;;;;;;;;;;7.77;100.00;95793.72;5075909;28;19957;-73
2022/12/22 07:14:48;;;;;;;;;;;;;;;7.79;100.00;95790.88;5075599;28;19956;-74
2022/12/22 07:17:14;;;;;;;;;;;;;;;7.76;100.00;95807.78;5075726;28;20455;-74
2022/12/22 07:19:40;;;;;;;;;;;;;;;7.77;100.00;95822.44;5075464;28;19967;-73
2022/12/22 07:22:06;;;;;;;;;;;;;;;7.77;100.00;95806.78;5075422;28;19952;-73
2022/12/22 07:24:32;;;;;;;;;;;;;;;7.82;100.00;95817.34;5075134;28;19948;-73
2022/12/22 07:26:58;;;;;;;;;;;;;;;7.86;100.00;95823.75;5075220;28;19954;-74
2022/12/22 07:29:24;;;;;;;;;;;;;;;7.90;100.00;95826.72;5075396;28;19950;-74
2022/12/22 07:31:50;;;;;;;;;;;;;;;7.89;100.00;95825.13;5075261;28;19991;-74
2022/12/22 07:34:16;;;;;;;;;;;;;;;7.87;100.00;95830.56;5075445;28;19962;-73
2022/12/22 07:36:42;;;;;;;;;;;;;;;7.85;100.00;95845.66;5075560;28;20443;-73
2022/12/22 07:39:12;;;;;;;;;;;;;;;7.83;100.00;95849.47;5075034;28;19975;-74
2022/12/22 07:44:29;;;;;;;;;;;;;;;7.77;100.00;95835.50;5036118;28;20308;-73
2022/12/22 07:46:55;;;;;;;;;;;;;;;7.75;100.00;95828.84;5074772;28;19956;-73
2022/12/22 07:52:06;;;;;;;;;;;;;;;7.70;100.00;95821.69;5075105;28;19993;-73
2022/12/22 07:54:32;;;;;;;;;;;;;;;7.67;100.00;95789.00;5074907;28;20442;-73
2022/12/22 07:56:58;;;;;;;;;;;;;;;7.69;100.00;95796.59;5074849;28;20431;-73
2022/12/22 07:59:24;;;;;;;;;;;;;;;7.68;100.00;95819.28;5074380;28;19969;-74
2022/12/22 08:01:50;;;;;;;;;;;;;;;7.66;100.00;95831.75;5074975;28;19958;-74
2022/12/22 08:04:16;;;;;;;;;;;;;;;7.63;100.00;95837.41;5074592;28;19950;-73
2022/12/22 08:06:42;;;;;;;;;;;;;;;7.59;100.00;95838.84;5073937;28;20040;-74
2022/12/22 08:09:08;;;;;;;;;;;;;;;7.58;100.00;95829.44;5074683;28;19964;-74
2022/12/22 08:11:34;;;;;;;;;;;;;;;7.58;100.00;95829.44;5074685;28;20338;-74
2022/12/22 08:14:00;;;;;;;;;;;;;;;7.57;100.00;95817.38;5074371;28;19968;-73
2022/12/22 08:16:26;;;;;;;;;;;;;;;7.59;100.00;95811.97;5074355;28;19991;-73
2022/12/22 08:18:52;;;;;;;;;;;;;;;7.61;100.00;95820.38;5074800;28;19968;-73
2022/12/22 08:21:18;;;;;;;;;;;;;;;7.63;100.00;95808.69;5074319;28;19954;-74
2022/12/22 08:23:44;;;;;;;;;;;;;;;7.66;100.00;95797.81;5074761;28;19956;-73
2022/12/22 08:26:13;;;;;;;;;;;;;;;7.69;100.00;95794.78;5056487;28;19958;-73
2022/12/22 08:28:49;;;;;;;;;;;;;;;7.70;100.00;95796.38;5074417;28;19951;-73
2022/12/22 08:31:15;;;;;;;;;;;;;;;7.72;100.00;95780.50;5074066;28;19955;-74
2022/12/22 08:33:41;;;;;;;;;;;;;;;7.71;100.00;95795.38;5074034;28;19958;-73
2022/12/22 08:36:08;;;;;;;;;;;;;;;7.72;100.00;95796.16;5074049;28;20073;-74
2022/12/22 08:38:35;;;;;;;;;;;;;;;7.69;100.00;95794.78;5074058;28;19979;-74
2022/12/22 08:41:01;;;;;;;;;;;;;;;7.68;100.00;95790.56;5073837;28;19961;-74
2022/12/22 08:43:29;;;;;;;;;;;;;;;7.71;100.00;95802.41;5074073;28;19960;-73
2022/12/22 08:45:55;;;;;;;;;;;;;;;7.67;100.00;95793.41;5073674;28;19949;-74
2022/12/22 08:48:20;;;;;;;;;;;;;;;7.64;100.00;95799.06;5056201;28;20008;-74
2022/12/22 08:50:46;;;;;;;;;;;;;;;7.59;100.00;95796.31;5074198;28;19960;-74
2022/12/22 08:53:12;;;;;;;;;;;;;;;7.54;100.00;95799.56;5074011;28;19951;-73
2022/12/22 08:55:38;;;;;;;;;;;;;;;7.55;100.00;95822.00;5073617;28;19996;-73
2022/12/22 08:58:04;;;;;;;;;;;;;;;7.57;100.00;95820.00;5055824;28;19997;-73
2022/12/22 09:00:30;;;;;;;;;;;;;;;7.64;100.00;95822.53;5056023;28;20499;-73
2022/12/22 09:02:56;;;;;;;;;;;;;;;7.74;100.00;95822.84;5073656;28;19959;-74
2022/12/22 09:05:21;;;;;;;;;;;;;;;7.82;100.00;95824.41;5073653;28;19997;-73
2022/12/22 09:07:47;;;;;;;;;;;;;;;7.81;100.00;95817.56;5073648;28;19954;-74
2022/12/22 09:10:13;;;;;;;;;;;;;;;7.79;100.00;95816.97;5072683;28;19952;-74
2022/12/22 09:12:39;;;;;;;;;;;;;;;7.78;100.00;95834.47;5073599;28;19947;-74
2022/12/22 09:15:07;;;;;;;;;;;;;;;7.75;100.00;95821.84;5073655;28;19955;-75
2022/12/22 09:17:34;;;;;;;;;;;;;;;7.72;100.00;95830.09;5073552;28;19958;-75
2022/12/22 09:20:01;;;;;;;;;;;;;;;7.70;100.00;95830.31;5055396;28;19966;-74
2022/12/22 09:22:27;;;;;;;;;;;;;;;7.68;100.00;95832.31;5073225;28;19959;-75
2022/12/22 09:24:53;;;;;;;;;;;;;;;7.68;100.00;95840.16;5073474;28;20428;-74
2022/12/22 09:27:18;;;;;;;;;;;;;;;7.69;100.00;95836.53;5073327;28;19991;-74
2022/12/22 09:29:44;;;;;;;;;;;;;;;7.68;100.00;95839.38;5073043;28;20386;-74
2022/12/22 09:32:10;;;;;;;;;;;;;;;7.67;100.00;95837.78;5073627;28;19962;-74
2022/12/22 09:34:36;;;;;;;;;;;;;;;7.67;100.00;95843.78;5073452;28;20024;-73
2022/12/22 09:37:02;;;;;;;;;;;;;;;7.66;100.00;95844.78;5073666;28;19989;-75
2022/12/22 09:39:28;;;;;;;;;;;;;;;7.65;100.00;95847.63;5073086;28;19983;-74
2022/12/22 09:41:55;;;;;;;;;;;;;;;7.65;100.00;95848.44;5073807;28;19949;-74
2022/12/22 09:44:32;;;;;;;;;;;;;;;7.66;100.00;95851.81;5073429;28;19950;-74
2022/12/22 09:47:00;;;;;;;;;;;;;;;7.66;100.00;95857.03;5073129;28;19954;-74
2022/12/22 09:49:26;;;;;;;;;;;;;;;7.65;100.00;95856.25;5073060;28;20341;-74
2022/12/22 09:51:54;;;;;;;;;;;;;;;7.66;100.00;95857.84;5073167;28;19961;-74
2022/12/22 09:54:21;;;;;;;;;;;;;;;7.68;100.00;95855.03;5073183;28;20418;-74
2022/12/22 09:56:47;;;;;;;;;;;;;;;7.71;100.00;95852.00;5072329;28;19948;-74
2022/12/22 09:59:14;;;;;;;;;;;;;;;7.76;100.00;95848.75;5073339;28;19968;-74
2022/12/22 10:01:52;;;;;;;;;;;;;;;7.76;100.00;95851.34;5072922;28;19960;-75
2022/12/22 10:04:29;;;;;;;;;;;;;;;7.77;100.00;95858.97;5072825;28;20332;-74
2022/12/22 10:07:11;;;;;;;;;;;;;;;7.78;100.00;95852.72;5073358;28;19950;-74
2022/12/22 10:09:37;;;;;;;;;;;;;;;7.78;100.00;95849.31;5073381;28;19952;-75
2022/12/22 10:12:05;;;;;;;;;;;;;;;7.81;100.00;95848.88;5073040;28;19952;-74
2022/12/22 10:14:36;;;;;;;;;;;;;;;7.82;100.00;95850.50;5072923;28;20390;-74
2022/12/22 10:17:20;;;;;;;;;;;;;;;7.85;100.00;95856.09;5072883;28;19948;-73
2022/12/22 10:19:47;;;;;;;;;;;;;;;7.91;100.00;95851.81;5072716;28;19972;-74
2022/12/22 10:22:19;;;;;;;;;;;;;;;7.96;100.00;95864.22;5058846;28;19948;-74
2022/12/22 10:24:45;;;;;;;;;;;;;;;7.99;100.00;95861.97;5076641;28;19946;-74
2022/12/22 10:27:11;;;;;;;;;;;;;;;8.01;100.00;95846.91;5076501;28;19957;-73
2022/12/22 10:29:37;;;;;;;;;;;;;;;8.07;100.00;95856.47;5077001;28;19948;-74
2022/12/22 10:32:10;;;;;;;;;;;;;;;8.12;100.00;95861.84;5076445;28;19978;-74
2022/12/22 10:34:35;;;;;;;;;;;;;;;8.18;100.00;95859.38;5076452;28;20305;-74
2022/12/22 10:37:03;;;;;;;;;;;;;;;8.25;100.00;95862.72;5076390;28;19979;-74
2022/12/22 10:39:30;;;;;;;;;;;;;;;8.29;100.00;95856.03;5076160;28;19968;-74
2022/12/22 10:41:59;;;;;;;;;;;;;;;8.32;100.00;95866.06;5075920;28;19957;-73
2022/12/22 10:44:30;;;;;;;;;;;;;;;8.34;100.00;95862.22;5076192;28;19949;-73
2022/12/22 10:46:59;;;;;;;;;;;;;;;8.47;100.00;95865.75;5076416;28;19951;-74
2022/12/22 10:49:33;;;;;;;;;;;;;;;8.61;100.00;95868.97;5075975;28;19959;-74
2022/12/22 10:52:12;;;;;;;;;;;;;;;8.69;100.00;95872.13;5058396;28;19949;-75
2022/12/22 10:54:41;;;;;;;;;;;;;;;8.81;100.00;95874.78;5058494;28;19946;-74
2022/12/22 10:57:13;;;;;;;;;;;;;;;8.89;100.00;95881.53;5075845;28;20400;-74
2022/12/22 10:59:57;;;;;;;;;;;;;;;8.89;100.00;95887.53;5074763;28;19965;-75
2022/12/22 11:02:28;;;;;;;;;;;;;;;8.87;100.00;95886.19;5075745;28;19976;-74
2022/12/22 11:05:00;;;;;;;;;;;;;;;8.85;100.00;95891.63;5076323;28;19947;-73
2022/12/22 11:07:29;;;;;;;;;;;;;;;8.94;100.00;95879.03;5075849;28;19959;-74
2022/12/22 11:09:55;;;;;;;;;;;;;;;9.06;100.00;95885.13;5075991;28;19951;-74
2022/12/22 11:12:29;;;;;;;;;;;;;;;9.17;100.00;95888.78;5075698;28;20396;-74
2022/12/22 11:15:12;;;;;;;;;;;;;;;9.26;100.00;95884.03;5075594;28;19950;-74
2022/12/22 11:17:47;;;;;;;;;;;;;;;9.28;100.00;95884.59;5067549;28;19957;-73
2022/12/22 11:20:31;;;;;;;;;;;;;;;9.25;100.00;95890.31;5075982;28;19966;-76
2022/12/22 11:23:09;;;;;;;;;;;;;;;9.29;100.00;95892.25;5075647;28;19958;-74
2022/12/22 11:25:55;;;;;;;;;;;;;;;9.37;100.00;95896.38;5063140;28;19945;-73
2022/12/22 11:28:21;;;;;;;;;;;;;;;9.57;100.00;95898.69;5075347;28;19953;-74
2022/12/22 11:31:11;;;;;;;;;;;;;;;9.63;100.00;95892.53;5075159;28;19976;-74
2022/12/22 11:33:55;;;;;;;;;;;;;;;9.59;100.00;95893.22;5074165;28;19951;-74
2022/12/22 11:36:39;;;;;;;;;;;;;;;9.54;100.00;95907.00;5074963;28;19983;-74
2022/12/22 11:39:16;;;;;;;;;;;;;;;9.50;100.00;95901.41;5063989;28;19974;-74
2022/12/22 11:41:45;;;;;;;;;;;;;;;9.52;100.00;95907.22;5059890;28;19954;-74
2022/12/22 11:44:26;;;;;;;;;;;;;;;9.53;100.00;95897.53;5074869;28;19951;-74
2022/12/22 11:47:02;;;;;;;;;;;;;;;9.50;100.00;95901.41;5074958;28;19963;-74
2022/12/22 11:49:34;;;;;;;;;;;;;;;9.44;100.00;95894.44;5075441;28;19949;-73
2022/12/22 11:52:03;;;;;;;;;;;;;;;9.40;100.00;95906.38;5074806;28;20299;-74
2022/12/22 11:54:47;;;;;;;;;;;;;;;9.49;100.00;95889.34;5074765;28;20053;-74
2022/12/22 11:57:27;;;;;;;;;;;;;;;9.66;100.00;95875.59;5067554;28;20311;-74
2022/12/22 12:00:02;;;;;;;;;;;;;;;9.78;100.00;95883.47;5074806;28;19967;-74
2022/12/22 12:02:59;;;;;;;;;;;;;;;9.83;100.00;95887.00;5074580;28;19950;-73
2022/12/22 12:05:43;;;;;;;;;;;;;;;9.76;100.00;95883.69;5056622;28;19956;-74
2022/12/22 12:08:39;;;;;;;;;;;;;;;9.66;100.00;95878.19;5074843;28;19955;-75
2022/12/22 12:11:17;;;;;;;;;;;;;;;9.63;100.00;95881.28;4992473;28;19950;-73
2022/12/22 12:13:53;;;;;;;;;;;;;;;9.56;100.00;95873.53;5063800;28;19960;-74
2022/12/22 12:16:24;;;;;;;;;;;;;;;9.63;100.00;95889.13;5074450;28;19965;-74
2022/12/22 12:19:01;;;;;;;;;;;;;;;9.63;100.00;95870.81;5074380;28;19950;-74
2022/12/22 12:21:29;;;;;;;;;;;;;;;9.63;100.00;95876.84;5074341;28;19949;-74
2022/12/22 12:23:58;;;;;;;;;;;;;;;9.68;100.00;95878.78;5039880;28;19952;-74
2022/12/22 12:26:24;;;;;;;;;;;;;;;9.73;100.00;95881.53;5074111;28;19960;-74
2022/12/22 12:29:05;;;;;;;;;;;;;;;9.76;100.00;95888.91;5074285;28;20320;-74
2022/12/22 12:31:33;;;;;;;;;;;;;;;9.72;100.00;95890.41;5074200;28;19950;-74
2022/12/22 12:34:01;;;;;;;;;;;;;;;9.71;100.00;95900.06;5074268;28;19956;-74
2022/12/22 12:36:40;;;;;;;;;;;;;;;9.64;100.00;95909.03;5073882;28;19992;-74
2022/12/22 12:39:26;;;;;;;;;;;;;;;9.53;100.00;95916.69;5057502;28;19950;-73
2022/12/22 12:41:52;;;;;;;;;;;;;;;9.42;100.00;95921.88;5074157;28;19952;-74
2022/12/22 12:44:22;;;;;;;;;;;;;;;9.30;100.00;95921.81;5073818;28;19962;-74
2022/12/22 12:46:54;;;;;;;;;;;;;;;9.22;100.00;95919.50;5073720;28;20434;-74
2022/12/22 12:49:35;;;;;;;;;;;;;;;9.14;100.00;95924.03;5073620;28;19959;-74
2022/12/22 12:52:10;;;;;;;;;;;;;;;9.05;100.00;95941.06;5073942;28;20319;-74
2022/12/22 12:54:36;;;;;;;;;;;;;;;8.96;100.00;95938.97;5073840;28;19950;-73
2022/12/22 12:57:05;;;;;;;;;;;;;;;8.88;100.00;95938.25;5073674;28;19946;-75
2022/12/22 12:59:40;;;;;;;;;;;;;;;8.82;100.00;95935.69;5073401;28;19965;-74
2022/12/22 13:02:26;;;;;;;;;;;;;;;8.80;100.00;95937.72;5073679;28;19962;-73
2022/12/22 13:05:10;;;;;;;;;;;;;;;8.79;100.00;95939.56;5059073;28;19958;-74
2022/12/22 13:07:57;;;;;;;;;;;;;;;8.80;100.00;95937.72;5061498;28;19945;-75
2022/12/22 13:10:23;;;;;;;;;;;;;;;8.82;100.00;95936.53;5032166;28;19946;-74
2022/12/22 13:12:53;;;;;;;;;;;;;;;8.85;100.00;95943.91;5073411;28;19953;-74
2022/12/22 13:15:35;;;;;;;;;;;;;;;8.93;100.00;95948.06;5073385;28;19965;-75
2022/12/22 13:18:02;;;;;;;;;;;;;;;9.07;100.00;95946.06;5073305;28;20332;-74
2022/12/22 13:20:30;;;;;;;;;;;;;;;9.17;100.00;95950.78;5073124;28;19974;-74
2022/12/22 13:22:58;;;;;;;;;;;;;;;9.25;100.00;95964.34;5074031;28;19948;-75
2022/12/22 13:25:27;;;;;;;;;;;;;;;9.31;100.00;95953.00;5073687;28;19953;-75
2022/12/22 13:27:54;;;;;;;;;;;;;;;9.35;100.00;95962.00;5073215;28;20442;-75
2022/12/22 13:30:20;;;;;;;;;;;;;;;9.39;100.00;95966.81;5073208;28;19984;-74
2022/12/22 13:32:47;;;;;;;;;;;;;;;9.37;100.00;95967.03;5073306;28;20017;-74
2022/12/22 13:35:13;;;;;;;;;;;;;;;9.36;100.00;95970.66;5073251;28;20045;-75
2022/12/22 13:37:43;;;;;;;;;;;;;;;9.35;100.00;95976.91;5073362;28;20483;-75
2022/12/22 13:40:09;;;;;;;;;;;;;;;9.34;100.00;95980.53;5073261;28;19980;-76
2022/12/22 13:42:44;;;;;;;;;;;;;;;9.34;100.00;95985.78;5073680;28;19952;-75
2022/12/22 13:45:33;;;;;;;;;;;;;;;9.34;100.00;95980.53;5073194;28;19951;-74
2022/12/22 13:48:00;;;;;;;;;;;;;;;9.35;100.00;95976.91;5065227;28;19946;-75
2022/12/22 13:50:29;;;;;;;;;;;;;;;9.33;100.00;95982.38;5072505;28;19956;-75
2022/12/22 13:52:56;;;;;;;;;;;;;;;9.32;100.00;95987.81;5073320;28;20282;-74
2022/12/22 13:55:27;;;;;;;;;;;;;;;9.30;100.00;95989.84;5073340;28;20456;-76
2022/12/22 13:57:53;;;;;;;;;;;;;;;9.27;100.00;95985.84;5075574;28;19966;-74
2022/12/22 14:00:22;;;;;;;;;;;;;;;9.26;100.00;95986.91;5077144;28;19971;-74
2022/12/22 14:02:48;;;;;;;;;;;;;;;9.25;100.00;95995.75;5077115;28;19948;-74
2022/12/22 14:05:14;;;;;;;;;;;;;;;9.20;100.00;95989.56;5077313;28;20045;-74
2022/12/22 14:07:56;;;;;;;;;;;;;;;9.16;100.00;95993.66;5076968;28;19961;-75
2022/12/22 14:10:26;;;;;;;;;;;;;;;9.11;100.00;95991.69;5063760;28;19953;-74
2022/12/22 14:12:52;;;;;;;;;;;;;;;9.06;100.00;96002.03;5076690;28;19956;-75
2022/12/22 14:15:19;;;;;;;;;;;;;;;9.01;100.00;96000.06;5076853;28;19956;-75
2022/12/22 14:17:45;;;;;;;;;;;;;;;8.95;100.00;96000.94;5063282;28;19952;-74
2022/12/22 14:20:17;;;;;;;;;;;;;;;8.90;100.00;95998.16;5076881;28;19969;-75
2022/12/22 14:22:47;;;;;;;;;;;;;;;8.83;100.00;96008.69;5076685;28;19948;-74
2022/12/22 14:25:23;;;;;;;;;;;;;;;8.80;100.00;96005.72;5076620;28;19946;-74
2022/12/22 14:27:51;;;;;;;;;;;;;;;8.76;100.00;96015.00;5058687;28;19955;-75
2022/12/22 14:30:19;;;;;;;;;;;;;;;8.73;100.00;96016.25;5076659;28;19954;-74
2022/12/22 14:32:46;;;;;;;;;;;;;;;8.69;100.00;96010.66;5076565;28;20310;-74
2022/12/22 14:35:18;;;;;;;;;;;;;;;8.66;100.00;96018.13;5076324;28;19944;-74
2022/12/22 14:37:48;;;;;;;;;;;;;;;8.62;100.00;96028.22;5076965;28;19990;-74
2022/12/22 14:40:32;;;;;;;;;;;;;;;8.57;100.00;96025.44;5076092;28;20418;-74
2022/12/22 14:42:59;;;;;;;;;;;;;;;8.53;100.00;96029.50;5076371;28;19949;-74
2022/12/22 14:45:25;;;;;;;;;;;;;;;8.48;100.00;96022.31;5076150;28;20017;-75
2022/12/22 14:47:52;;;;;;;;;;;;;;;8.45;100.00;96032.38;5076199;28;19957;-74
2022/12/22 14:50:19;;;;;;;;;;;;;;;8.44;100.00;96020.31;5076225;28;20410;-74
2022/12/22 14:52:49;;;;;;;;;;;;;;;8.42;100.00;96038.03;5076251;28;19952;-74
2022/12/22 14:55:36;;;;;;;;;;;;;;;8.37;100.00;96038.66;5075908;28;19946;-74
2022/12/22 14:58:10;;;;;;;;;;;;;;;8.34;100.00;96039.88;5075702;28;19957;-74
2022/12/22 15:00:40;;;;;;;;;;;;;;;8.30;100.00;96035.28;5075996;28;19973;-74
2022/12/22 15:03:25;;;;;;;;;;;;;;;8.28;100.00;96029.47;5075989;28;20392;-74
2022/12/22 15:05:51;;;;;;;;;;;;;;;8.24;100.00;96030.94;5066082;28;19969;-74
2022/12/22 15:08:36;;;;;;;;;;;;;;;8.20;100.00;96030.53;5075647;28;19961;-75
2022/12/22 15:11:02;;;;;;;;;;;;;;;8.16;100.00;96031.19;5075683;28;20289;-74
2022/12/22 15:13:28;;;;;;;;;;;;;;;8.14;100.00;96039.22;5075898;28;20037;-75
2022/12/22 15:15:55;;;;;;;;;;;;;;;8.11;100.00;96039.66;5075975;28;20315;-74
2022/12/22 15:18:25;;;;;;;;;;;;;;;8.09;100.00;96036.47;5075611;28;19956;-74
2022/12/22 15:20:51;;;;;;;;;;;;;;;8.09;100.00;96041.69;5075376;28;19970;-73
2022/12/22 15:23:17;;;;;;;;;;;;;;;8.05;100.00;96041.28;5075432;28;19958;-74
2022/12/22 15:25:44;;;;;;;;;;;;;;;8.03;100.00;96034.69;5075670;28;19962;-74
2022/12/22 15:28:10;;;;;;;;;;;;;;;8.01;100.00;96036.72;5075359;28;19967;-73
2022/12/22 15:30:36;;;;;;;;;;;;;;;7.97;100.00;96043.38;5075575;28;19953;-74
2022/12/22 15:33:02;;;;;;;;;;;;;;;7.95;100.00;96040.16;5075371;28;19952;-74
2022/12/22 15:35:29;;;;;;;;;;;;;;;7.91;100.00;96034.56;5057419;28;19999;-74
2022/12/22 15:37:55;;;;;;;;;;;;;;;7.89;100.00;96033.97;5075161;28;19975;-73
2022/12/22 15:40:22;;;;;;;;;;;;;;;7.89;100.00;96036.56;5074919;28;19984;-74
2022/12/22 15:42:49;;;;;;;;;;;;;;;7.87;100.00;96042.03;5075220;28;19944;-74
2022/12/22 15:45:15;;;;;;;;;;;;;;;7.87;100.00;96044.66;5075378;28;19947;-74
2022/12/22 15:47:43;;;;;;;;;;;;;;;7.85;100.00;96046.66;5074975;28;19956;-75
2022/12/22 15:50:20;;;;;;;;;;;;;;;7.85;100.00;96049.28;5074893;28;19957;-74
2022/12/22 15:52:50;;;;;;;;;;;;;;;7.85;100.00;96038.81;5075013;28;19952;-74
2022/12/22 15:55:17;;;;;;;;;;;;;;;7.86;100.00;96050.84;5057417;28;19959;-74
2022/12/22 15:57:43;;;;;;;;;;;;;;;7.85;100.00;96046.66;5074787;28;20333;-73
2022/12/22 16:00:10;;;;;;;;;;;;;;;7.83;100.00;96050.47;5074797;28;19975;-74
2022/12/22 16:02:36;;;;;;;;;;;;;;;7.82;100.00;96054.09;5074799;28;19957;-74
2022/12/22 16:05:02;;;;;;;;;;;;;;;7.78;100.00;96051.09;5074577;28;19952;-73
2022/12/22 16:07:29;;;;;;;;;;;;;;;7.78;100.00;96055.53;5074610;28;19955;-73
2022/12/22 16:09:55;;;;;;;;;;;;;;;7.77;100.00;96054.75;5074919;28;20424;-74
2022/12/22 16:12:21;;;;;;;;;;;;;;;7.75;100.00;96050.72;5074606;28;19954;-74
2022/12/22 16:14:49;;;;;;;;;;;;;;;7.74;100.00;96055.13;5074665;28;20000;-73
2022/12/22 16:17:19;;;;;;;;;;;;;;;7.71;100.00;96051.16;5074508;28;19962;-74
2022/12/22 16:19:45;;;;;;;;;;;;;;;7.68;100.00;96050.75;5073708;28;20391;-74
2022/12/22 16:22:12;;;;;;;;;;;;;;;7.67;100.00;96054.38;5056653;28;20002;-73
2022/12/22 16:24:39;;;;;;;;;;;;;;;7.63;100.00;96059.22;5074292;28;19957;-73
2022/12/22 16:27:05;;;;;;;;;;;;;;;7.61;100.00;96057.84;5074714;28;19952;-74
2022/12/22 16:29:31;;;;;;;;;;;;;;;7.63;100.00;96053.19;5073974;28;19960;-73
2022/12/22 16:32:12;;;;;;;;;;;;;;;7.64;100.00;96054.78;5074343;28;20456;-74
2022/12/22 16:34:38;;;;;;;;;;;;;;;7.63;100.00;96054.00;5074601;28;19951;-74
2022/12/22 16:37:03;;;;;;;;;;;;;;;7.64;100.00;96042.56;5074256;28;19975;-74